sensor_id;sensor_type;location;lat;lon;timestamp;temperature;humidity
27384;DHT22;14851;51.166;4.760;2023-06-05T00:00:55;16.00;99.90
27384;DHT22;14851;51.166;4.760;2023-06-05T00:03:21;16.00;99.90
27384;DHT22;14851;51.166;4.760;2023-06-05T00:05:49;15.90;99.90
27384;DHT22;14851;51.166;4.760;2023-06-05T00:08:15;16.00;99.90
27384;DHT22;14851;51.166;4.760;2023-06-05T00:10:42;15.90;99.90
27384;DHT22;14851;51.166;4.760;2023-06-05T00:13:08;15.80;99.90
27384;DHT22;14851;51.166;4.760;2023-06-05T00:15:38;15.80;99.90
27384;DHT22;14851;51.166;4.760;2023-06-05T00:18:04;15.80;99.90
27384;DHT22;14851;51.166;4.760;2023-06-05T00:20:30;15.70;99.90
27384;DHT22;14851;51.166;4.760;2023-06-05T00:22:56;15.70;99.90
27384;DHT22;14851;51.166;4.760;2023-06-05T00:25:22;15.60;99.90
27384;DHT22;14851;51.166;4.760;2023-06-05T00:27:48;15.60;99.90
27384;DHT22;14851;51.166;4.760;2023-06-05T00:30:14;15.50;99.90
27384;DHT22;14851;51.166;4.760;2023-06-05T00:32:41;15.50;99.90
27384;DHT22;14851;51.166;4.760;2023-06-05T00:35:10;15.50;99.90
27384;DHT22;14851;51.166;4.760;2023-06-05T00:37:36;15.50;99.90
27384;DHT22;14851;51.166;4.760;2023-06-05T00:40:04;15.50;99.90
27384;DHT22;14851;51.166;4.760;2023-06-05T00:42:31;15.50;99.90
27384;DHT22;14851;51.166;4.760;2023-06-05T00:44:57;15.40;99.90
27384;DHT22;14851;51.166;4.760;2023-06-05T00:47:23;15.30;99.90
27384;DHT22;14851;51.166;4.760;2023-06-05T00:49:51;15.30;99.90
27384;DHT22;14851;51.166;4.760;2023-06-05T00:52:17;15.30;99.90
27384;DHT22;14851;51.166;4.760;2023-06-05T00:54:43;15.30;99.90
27384;DHT22;14851;51.166;4.760;2023-06-05T00:57:16;15.20;99.90
27384;DHT22;14851;51.166;4.760;2023-06-05T00:59:42;15.20;99.90
27384;DHT22;14851;51.166;4.760;2023-06-05T01:02:12;15.10;99.90
27384;DHT22;14851;51.166;4.760;2023-06-05T01:04:44;15.10;99.90
27384;DHT22;14851;51.166;4.760;2023-06-05T01:07:24;15.10;99.90
27384;DHT22;14851;51.166;4.760;2023-06-05T01:09:50;15.00;99.90
27384;DHT22;14851;51.166;4.760;2023-06-05T01:12:30;15.00;99.90
27384;DHT22;14851;51.166;4.760;2023-06-05T01:15:01;14.90;99.90
27384;DHT22;14851;51.166;4.760;2023-06-05T01:17:28;14.90;99.90
27384;DHT22;14851;51.166;4.760;2023-06-05T01:19:55;14.90;99.90
27384;DHT22;14851;51.166;4.760;2023-06-05T01:22:22;14.90;99.90
27384;DHT22;14851;51.166;4.760;2023-06-05T01:24:53;14.80;99.90
27384;DHT22;14851;51.166;4.760;2023-06-05T01:27:30;14.80;99.90
27384;DHT22;14851;51.166;4.760;2023-06-05T01:32:53;14.70;99.90
27384;DHT22;14851;51.166;4.760;2023-06-05T01:35:23;14.60;99.90
27384;DHT22;14851;51.166;4.760;2023-06-05T01:37:54;14.60;99.90
27384;DHT22;14851;51.166;4.760;2023-06-05T01:40:24;14.60;99.90
27384;DHT22;14851;51.166;4.760;2023-06-05T01:42:55;14.60;99.90
27384;DHT22;14851;51.166;4.760;2023-06-05T01:45:22;14.50;99.90
27384;DHT22;14851;51.166;4.760;2023-06-05T01:47:49;14.50;99.90
27384;DHT22;14851;51.166;4.760;2023-06-05T01:50:16;14.40;99.90
27384;DHT22;14851;51.166;4.760;2023-06-05T01:52:44;14.40;99.90
27384;DHT22;14851;51.166;4.760;2023-06-05T01:55:16;14.30;99.90
27384;DHT22;14851;51.166;4.760;2023-06-05T01:57:42;14.30;99.90
27384;DHT22;14851;51.166;4.760;2023-06-05T02:00:09;14.30;99.90
27384;DHT22;14851;51.166;4.760;2023-06-05T02:02:46;14.30;99.90
27384;DHT22;14851;51.166;4.760;2023-06-05T02:05:14;14.20;99.90
27384;DHT22;14851;51.166;4.760;2023-06-05T02:07:44;14.10;99.90
27384;DHT22;14851;51.166;4.760;2023-06-05T02:10:13;14.10;99.90
27384;DHT22;14851;51.166;4.760;2023-06-05T02:12:39;14.10;99.90
27384;DHT22;14851;51.166;4.760;2023-06-05T02:15:08;14.10;99.90
27384;DHT22;14851;51.166;4.760;2023-06-05T02:17:34;14.10;99.90
27384;DHT22;14851;51.166;4.760;2023-06-05T02:20:01;14.00;99.90
27384;DHT22;14851;51.166;4.760;2023-06-05T02:22:28;14.00;99.90
27384;DHT22;14851;51.166;4.760;2023-06-05T02:24:56;13.90;99.90
27384;DHT22;14851;51.166;4.760;2023-06-05T02:27:24;13.90;99.90
27384;DHT22;14851;51.166;4.760;2023-06-05T02:29:54;13.90;99.90
27384;DHT22;14851;51.166;4.760;2023-06-05T02:32:20;13.90;99.90
27384;DHT22;14851;51.166;4.760;2023-06-05T02:34:48;13.90;99.90
27384;DHT22;14851;51.166;4.760;2023-06-05T02:37:14;13.80;99.90
27384;DHT22;14851;51.166;4.760;2023-06-05T02:39:40;13.80;99.90
27384;DHT22;14851;51.166;4.760;2023-06-05T02:42:06;13.70;99.90
27384;DHT22;14851;51.166;4.760;2023-06-05T02:44:34;13.70;99.90
27384;DHT22;14851;51.166;4.760;2023-06-05T02:47:00;13.70;99.90
27384;DHT22;14851;51.166;4.760;2023-06-05T02:49:26;13.60;99.90
27384;DHT22;14851;51.166;4.760;2023-06-05T02:51:52;13.70;99.90
27384;DHT22;14851;51.166;4.760;2023-06-05T02:54:18;13.60;99.90
27384;DHT22;14851;51.166;4.760;2023-06-05T02:56:44;13.50;99.90
27384;DHT22;14851;51.166;4.760;2023-06-05T02:59:11;13.50;99.90
27384;DHT22;14851;51.166;4.760;2023-06-05T03:01:40;13.50;99.90
27384;DHT22;14851;51.166;4.760;2023-06-05T03:04:15;13.40;99.90
27384;DHT22;14851;51.166;4.760;2023-06-05T03:06:53;13.40;99.90
27384;DHT22;14851;51.166;4.760;2023-06-05T03:09:23;13.40;99.90
27384;DHT22;14851;51.166;4.760;2023-06-05T03:11:51;13.40;99.90
27384;DHT22;14851;51.166;4.760;2023-06-05T03:14:18;13.40;99.90
27384;DHT22;14851;51.166;4.760;2023-06-05T03:16:44;13.30;99.90
27384;DHT22;14851;51.166;4.760;2023-06-05T03:19:13;13.30;99.90
27384;DHT22;14851;51.166;4.760;2023-06-05T03:21:41;13.30;99.90
27384;DHT22;14851;51.166;4.760;2023-06-05T03:24:11;13.20;99.90
27384;DHT22;14851;51.166;4.760;2023-06-05T03:26:45;13.20;99.90
27384;DHT22;14851;51.166;4.760;2023-06-05T03:29:12;13.20;99.90
27384;DHT22;14851;51.166;4.760;2023-06-05T03:31:40;13.10;99.90
27384;DHT22;14851;51.166;4.760;2023-06-05T03:34:11;13.10;99.90
27384;DHT22;14851;51.166;4.760;2023-06-05T03:36:37;13.10;99.90
27384;DHT22;14851;51.166;4.760;2023-06-05T03:39:07;13.10;99.90
27384;DHT22;14851;51.166;4.760;2023-06-05T03:41:35;13.00;99.90
27384;DHT22;14851;51.166;4.760;2023-06-05T03:44:01;13.00;99.90
27384;DHT22;14851;51.166;4.760;2023-06-05T03:46:31;13.00;99.90
27384;DHT22;14851;51.166;4.760;2023-06-05T03:48:57;13.00;99.90
27384;DHT22;14851;51.166;4.760;2023-06-05T03:51:31;13.00;99.90
27384;DHT22;14851;51.166;4.760;2023-06-05T03:53:58;13.00;99.90
27384;DHT22;14851;51.166;4.760;2023-06-05T03:56:27;13.00;99.90
27384;DHT22;14851;51.166;4.760;2023-06-05T03:59:09;12.90;99.90
27384;DHT22;14851;51.166;4.760;2023-06-05T04:01:47;12.90;99.90
27384;DHT22;14851;51.166;4.760;2023-06-05T04:04:15;12.90;99.90
27384;DHT22;14851;51.166;4.760;2023-06-05T04:06:42;12.80;99.90
27384;DHT22;14851;51.166;4.760;2023-06-05T04:09:09;12.80;99.90
27384;DHT22;14851;51.166;4.760;2023-06-05T04:11:41;12.80;99.90
27384;DHT22;14851;51.166;4.760;2023-06-05T04:14:11;12.90;99.90
27384;DHT22;14851;51.166;4.760;2023-06-05T04:16:37;12.80;99.90
27384;DHT22;14851;51.166;4.760;2023-06-05T04:19:10;12.80;99.90
27384;DHT22;14851;51.166;4.760;2023-06-05T04:21:38;12.80;99.90
27384;DHT22;14851;51.166;4.760;2023-06-05T04:24:05;12.80;99.90
27384;DHT22;14851;51.166;4.760;2023-06-05T04:26:37;12.80;99.90
27384;DHT22;14851;51.166;4.760;2023-06-05T04:29:04;12.70;99.90
27384;DHT22;14851;51.166;4.760;2023-06-05T04:31:43;12.80;99.90
27384;DHT22;14851;51.166;4.760;2023-06-05T04:34:10;12.80;99.90
27384;DHT22;14851;51.166;4.760;2023-06-05T04:36:36;12.80;99.90
27384;DHT22;14851;51.166;4.760;2023-06-05T04:39:03;12.80;99.90
27384;DHT22;14851;51.166;4.760;2023-06-05T04:41:49;12.80;99.90
27384;DHT22;14851;51.166;4.760;2023-06-05T04:44:24;12.80;99.90
27384;DHT22;14851;51.166;4.760;2023-06-05T04:46:52;12.80;99.90
27384;DHT22;14851;51.166;4.760;2023-06-05T04:49:19;12.80;99.90
27384;DHT22;14851;51.166;4.760;2023-06-05T04:51:46;12.80;99.90
27384;DHT22;14851;51.166;4.760;2023-06-05T04:54:14;12.90;99.90
27384;DHT22;14851;51.166;4.760;2023-06-05T04:56:44;12.90;99.90
27384;DHT22;14851;51.166;4.760;2023-06-05T04:59:16;12.90;99.90
27384;DHT22;14851;51.166;4.760;2023-06-05T05:01:44;12.90;99.90
27384;DHT22;14851;51.166;4.760;2023-06-05T05:04:12;12.90;99.90
27384;DHT22;14851;51.166;4.760;2023-06-05T05:06:46;12.90;99.90
27384;DHT22;14851;51.166;4.760;2023-06-05T05:09:13;12.90;99.90
27384;DHT22;14851;51.166;4.760;2023-06-05T05:11:40;12.90;99.90
27384;DHT22;14851;51.166;4.760;2023-06-05T05:14:08;13.00;99.90
27384;DHT22;14851;51.166;4.760;2023-06-05T05:16:34;12.90;99.90
27384;DHT22;14851;51.166;4.760;2023-06-05T05:19:05;12.90;99.90
27384;DHT22;14851;51.166;4.760;2023-06-05T05:21:32;13.00;99.90
27384;DHT22;14851;51.166;4.760;2023-06-05T05:23:58;13.00;99.90
27384;DHT22;14851;51.166;4.760;2023-06-05T05:26:27;13.00;99.90
27384;DHT22;14851;51.166;4.760;2023-06-05T05:28:53;13.10;99.90
27384;DHT22;14851;51.166;4.760;2023-06-05T05:31:20;13.10;99.90
27384;DHT22;14851;51.166;4.760;2023-06-05T05:33:46;13.10;99.90
27384;DHT22;14851;51.166;4.760;2023-06-05T05:36:16;13.10;99.90
27384;DHT22;14851;51.166;4.760;2023-06-05T05:38:46;13.10;99.90
27384;DHT22;14851;51.166;4.760;2023-06-05T05:41:12;13.20;99.90
27384;DHT22;14851;51.166;4.760;2023-06-05T05:43:38;13.20;99.90
27384;DHT22;14851;51.166;4.760;2023-06-05T05:46:05;13.20;99.90
27384;DHT22;14851;51.166;4.760;2023-06-05T05:48:35;13.20;99.90
27384;DHT22;14851;51.166;4.760;2023-06-05T05:51:06;13.30;99.90
27384;DHT22;14851;51.166;4.760;2023-06-05T05:53:32;13.30;99.90
27384;DHT22;14851;51.166;4.760;2023-06-05T05:56:03;13.30;99.90
27384;DHT22;14851;51.166;4.760;2023-06-05T05:58:30;13.30;99.90
27384;DHT22;14851;51.166;4.760;2023-06-05T06:00:57;13.30;99.90
27384;DHT22;14851;51.166;4.760;2023-06-05T06:03:25;13.30;99.90
27384;DHT22;14851;51.166;4.760;2023-06-05T06:06:00;13.30;99.90
27384;DHT22;14851;51.166;4.760;2023-06-05T06:08:33;13.40;99.90
27384;DHT22;14851;51.166;4.760;2023-06-05T06:10:59;13.40;99.90
27384;DHT22;14851;51.166;4.760;2023-06-05T06:13:26;13.40;99.90
27384;DHT22;14851;51.166;4.760;2023-06-05T06:15:55;13.50;99.90
27384;DHT22;14851;51.166;4.760;2023-06-05T06:18:21;13.50;99.90
27384;DHT22;14851;51.166;4.760;2023-06-05T06:20:47;13.50;99.90
27384;DHT22;14851;51.166;4.760;2023-06-05T06:23:15;13.50;99.90
27384;DHT22;14851;51.166;4.760;2023-06-05T06:25:41;13.60;99.90
27384;DHT22;14851;51.166;4.760;2023-06-05T06:28:09;13.60;99.90
27384;DHT22;14851;51.166;4.760;2023-06-05T06:30:35;13.60;99.90
27384;DHT22;14851;51.166;4.760;2023-06-05T06:33:04;13.60;99.90
27384;DHT22;14851;51.166;4.760;2023-06-05T06:35:30;13.70;99.90
27384;DHT22;14851;51.166;4.760;2023-06-05T06:37:59;13.60;99.90
27384;DHT22;14851;51.166;4.760;2023-06-05T06:40:27;13.70;99.90
27384;DHT22;14851;51.166;4.760;2023-06-05T06:42:55;13.70;99.90
27384;DHT22;14851;51.166;4.760;2023-06-05T06:45:41;13.70;99.90
27384;DHT22;14851;51.166;4.760;2023-06-05T06:48:09;13.80;99.90
27384;DHT22;14851;51.166;4.760;2023-06-05T06:50:36;13.80;99.90
27384;DHT22;14851;51.166;4.760;2023-06-05T06:53:03;13.80;99.90
27384;DHT22;14851;51.166;4.760;2023-06-05T06:55:30;13.90;99.90
27384;DHT22;14851;51.166;4.760;2023-06-05T06:57:57;13.90;99.90
27384;DHT22;14851;51.166;4.760;2023-06-05T07:00:22;13.90;99.90
27384;DHT22;14851;51.166;4.760;2023-06-05T07:02:50;14.00;99.90
27384;DHT22;14851;51.166;4.760;2023-06-05T07:05:16;14.00;99.90
27384;DHT22;14851;51.166;4.760;2023-06-05T07:07:45;14.10;99.90
27384;DHT22;14851;51.166;4.760;2023-06-05T07:10:11;14.10;99.90
27384;DHT22;14851;51.166;4.760;2023-06-05T07:12:38;14.10;99.90
27384;DHT22;14851;51.166;4.760;2023-06-05T07:15:07;14.20;99.90
27384;DHT22;14851;51.166;4.760;2023-06-05T07:17:33;14.20;99.90
27384;DHT22;14851;51.166;4.760;2023-06-05T07:19:59;14.20;99.90
27384;DHT22;14851;51.166;4.760;2023-06-05T07:22:27;14.30;99.90
27384;DHT22;14851;51.166;4.760;2023-06-05T07:24:56;14.30;99.90
27384;DHT22;14851;51.166;4.760;2023-06-05T07:27:22;14.40;99.90
27384;DHT22;14851;51.166;4.760;2023-06-05T07:29:51;14.50;99.90
27384;DHT22;14851;51.166;4.760;2023-06-05T07:32:19;14.50;99.90
27384;DHT22;14851;51.166;4.760;2023-06-05T07:34:46;14.50;99.90
27384;DHT22;14851;51.166;4.760;2023-06-05T07:37:15;14.50;99.90
27384;DHT22;14851;51.166;4.760;2023-06-05T07:39:41;14.60;99.90
27384;DHT22;14851;51.166;4.760;2023-06-05T07:42:07;14.60;99.90
27384;DHT22;14851;51.166;4.760;2023-06-05T07:44:33;14.60;99.90
27384;DHT22;14851;51.166;4.760;2023-06-05T07:47:01;14.70;99.90
27384;DHT22;14851;51.166;4.760;2023-06-05T07:49:30;14.70;99.90
27384;DHT22;14851;51.166;4.760;2023-06-05T07:51:57;14.80;99.90
27384;DHT22;14851;51.166;4.760;2023-06-05T07:54:24;14.80;99.90
27384;DHT22;14851;51.166;4.760;2023-06-05T07:56:50;14.90;99.90
27384;DHT22;14851;51.166;4.760;2023-06-05T07:59:19;14.90;99.90
27384;DHT22;14851;51.166;4.760;2023-06-05T08:01:52;15.00;99.90
27384;DHT22;14851;51.166;4.760;2023-06-05T08:04:21;15.00;99.90
27384;DHT22;14851;51.166;4.760;2023-06-05T08:06:51;15.00;99.90
27384;DHT22;14851;51.166;4.760;2023-06-05T08:09:18;15.10;99.90
27384;DHT22;14851;51.166;4.760;2023-06-05T08:11:48;15.10;99.90
27384;DHT22;14851;51.166;4.760;2023-06-05T08:14:14;15.20;99.90
27384;DHT22;14851;51.166;4.760;2023-06-05T08:16:43;15.30;99.90
27384;DHT22;14851;51.166;4.760;2023-06-05T08:19:10;15.30;99.90
27384;DHT22;14851;51.166;4.760;2023-06-05T08:21:38;15.30;99.90
27384;DHT22;14851;51.166;4.760;2023-06-05T08:24:04;15.40;99.90
27384;DHT22;14851;51.166;4.760;2023-06-05T08:26:31;15.40;99.90
27384;DHT22;14851;51.166;4.760;2023-06-05T08:28:57;15.50;99.90
27384;DHT22;14851;51.166;4.760;2023-06-05T08:31:22;15.50;99.90
27384;DHT22;14851;51.166;4.760;2023-06-05T08:33:49;15.60;99.90
27384;DHT22;14851;51.166;4.760;2023-06-05T08:36:17;15.60;99.90
27384;DHT22;14851;51.166;4.760;2023-06-05T08:38:43;15.60;99.90
27384;DHT22;14851;51.166;4.760;2023-06-05T08:41:09;15.70;99.90
27384;DHT22;14851;51.166;4.760;2023-06-05T08:43:37;15.70;99.90
27384;DHT22;14851;51.166;4.760;2023-06-05T08:46:05;15.80;99.90
27384;DHT22;14851;51.166;4.760;2023-06-05T08:48:32;15.80;99.90
27384;DHT22;14851;51.166;4.760;2023-06-05T08:51:03;15.90;99.90
27384;DHT22;14851;51.166;4.760;2023-06-05T08:53:32;15.90;99.90
27384;DHT22;14851;51.166;4.760;2023-06-05T08:56:01;16.00;99.90
27384;DHT22;14851;51.166;4.760;2023-06-05T08:58:30;16.10;99.90
27384;DHT22;14851;51.166;4.760;2023-06-05T09:00:56;16.10;99.90
27384;DHT22;14851;51.166;4.760;2023-06-05T09:03:22;16.20;99.90
27384;DHT22;14851;51.166;4.760;2023-06-05T09:05:52;16.20;99.90
27384;DHT22;14851;51.166;4.760;2023-06-05T09:08:31;16.20;99.90
27384;DHT22;14851;51.166;4.760;2023-06-05T09:11:26;16.30;99.90
27384;DHT22;14851;51.166;4.760;2023-06-05T09:13:56;16.30;99.90
27384;DHT22;14851;51.166;4.760;2023-06-05T09:16:38;16.40;99.90
27384;DHT22;14851;51.166;4.760;2023-06-05T09:19:11;16.50;99.90
27384;DHT22;14851;51.166;4.760;2023-06-05T09:21:38;16.50;99.90
27384;DHT22;14851;51.166;4.760;2023-06-05T09:29:24;16.70;99.90
27384;DHT22;14851;51.166;4.760;2023-06-05T09:32:00;16.80;99.90
27384;DHT22;14851;51.166;4.760;2023-06-05T09:34:27;16.80;99.90
27384;DHT22;14851;51.166;4.760;2023-06-05T09:36:55;16.90;99.90
27384;DHT22;14851;51.166;4.760;2023-06-05T09:39:24;16.90;99.90
27384;DHT22;14851;51.166;4.760;2023-06-05T09:41:54;16.90;99.90
27384;DHT22;14851;51.166;4.760;2023-06-05T09:44:20;17.00;99.90
27384;DHT22;14851;51.166;4.760;2023-06-05T09:49:19;17.10;99.90
27384;DHT22;14851;51.166;4.760;2023-06-05T09:51:46;17.10;99.90
27384;DHT22;14851;51.166;4.760;2023-06-05T09:54:14;17.10;99.90
27384;DHT22;14851;51.166;4.760;2023-06-05T09:56:46;17.20;99.90
27384;DHT22;14851;51.166;4.760;2023-06-05T09:59:21;17.30;99.90
27384;DHT22;14851;51.166;4.760;2023-06-05T10:01:50;17.40;99.90
27384;DHT22;14851;51.166;4.760;2023-06-05T10:04:20;17.50;99.90
27384;DHT22;14851;51.166;4.760;2023-06-05T10:06:47;17.50;99.90
27384;DHT22;14851;51.166;4.760;2023-06-05T10:09:16;17.50;99.90
27384;DHT22;14851;51.166;4.760;2023-06-05T10:11:42;17.60;99.90
27384;DHT22;14851;51.166;4.760;2023-06-05T10:14:09;17.70;99.90
27384;DHT22;14851;51.166;4.760;2023-06-05T10:16:35;17.70;99.90
27384;DHT22;14851;51.166;4.760;2023-06-05T10:19:03;17.80;99.90
27384;DHT22;14851;51.166;4.760;2023-06-05T10:21:29;17.80;99.90
27384;DHT22;14851;51.166;4.760;2023-06-05T10:32:00;18.00;99.90
27384;DHT22;14851;51.166;4.760;2023-06-05T10:34:52;18.10;99.90
27384;DHT22;14851;51.166;4.760;2023-06-05T10:40:25;18.10;99.90
27384;DHT22;14851;51.166;4.760;2023-06-05T10:42:52;18.30;99.90
27384;DHT22;14851;51.166;4.760;2023-06-05T10:45:30;18.30;99.90
27384;DHT22;14851;51.166;4.760;2023-06-05T10:47:57;18.40;99.90
27384;DHT22;14851;51.166;4.760;2023-06-05T10:50:24;18.40;99.90
27384;DHT22;14851;51.166;4.760;2023-06-05T10:52:52;18.40;99.90
27384;DHT22;14851;51.166;4.760;2023-06-05T10:55:19;18.50;99.90
27384;DHT22;14851;51.166;4.760;2023-06-05T10:58:04;18.50;99.90
27384;DHT22;14851;51.166;4.760;2023-06-05T11:00:31;18.60;99.90
27384;DHT22;14851;51.166;4.760;2023-06-05T11:02:57;18.70;99.90
27384;DHT22;14851;51.166;4.760;2023-06-05T11:05:23;18.70;99.90
27384;DHT22;14851;51.166;4.760;2023-06-05T11:10:36;18.80;99.90
27384;DHT22;14851;51.166;4.760;2023-06-05T11:13:05;18.80;99.90
27384;DHT22;14851;51.166;4.760;2023-06-05T11:15:35;18.90;99.90
27384;DHT22;14851;51.166;4.760;2023-06-05T11:18:32;18.90;99.90
27384;DHT22;14851;51.166;4.760;2023-06-05T11:21:00;19.00;99.90
27384;DHT22;14851;51.166;4.760;2023-06-05T11:23:26;19.00;99.90
27384;DHT22;14851;51.166;4.760;2023-06-05T11:25:56;19.00;99.90
27384;DHT22;14851;51.166;4.760;2023-06-05T11:28:42;19.10;99.90
27384;DHT22;14851;51.166;4.760;2023-06-05T11:31:11;19.10;99.90
27384;DHT22;14851;51.166;4.760;2023-06-05T11:33:37;19.20;99.90
27384;DHT22;14851;51.166;4.760;2023-06-05T11:36:05;19.40;99.90
27384;DHT22;14851;51.166;4.760;2023-06-05T11:38:33;19.40;99.90
27384;DHT22;14851;51.166;4.760;2023-06-05T11:41:00;19.40;99.90
27384;DHT22;14851;51.166;4.760;2023-06-05T11:43:30;19.40;99.90
27384;DHT22;14851;51.166;4.760;2023-06-05T11:46:00;19.50;99.90
27384;DHT22;14851;51.166;4.760;2023-06-05T11:48:26;19.50;99.90
27384;DHT22;14851;51.166;4.760;2023-06-05T11:50:59;19.50;99.90
27384;DHT22;14851;51.166;4.760;2023-06-05T11:53:29;19.60;99.90
27384;DHT22;14851;51.166;4.760;2023-06-05T11:55:56;19.70;99.90
27384;DHT22;14851;51.166;4.760;2023-06-05T11:58:38;19.70;99.90
27384;DHT22;14851;51.166;4.760;2023-06-05T12:03:48;19.90;99.90
27384;DHT22;14851;51.166;4.760;2023-06-05T12:06:15;20.00;99.90
27384;DHT22;14851;51.166;4.760;2023-06-05T12:08:43;20.10;99.90
27384;DHT22;14851;51.166;4.760;2023-06-05T12:11:26;20.20;99.90
27384;DHT22;14851;51.166;4.760;2023-06-05T12:13:54;20.20;99.90
27384;DHT22;14851;51.166;4.760;2023-06-05T12:16:49;20.20;99.90
27384;DHT22;14851;51.166;4.760;2023-06-05T12:19:17;20.20;99.90
27384;DHT22;14851;51.166;4.760;2023-06-05T12:21:48;20.20;99.90
27384;DHT22;14851;51.166;4.760;2023-06-05T12:24:26;20.30;99.90
27384;DHT22;14851;51.166;4.760;2023-06-05T12:26:56;20.40;99.90
27384;DHT22;14851;51.166;4.760;2023-06-05T12:29:25;20.50;99.90
27384;DHT22;14851;51.166;4.760;2023-06-05T12:31:55;20.40;99.90
27384;DHT22;14851;51.166;4.760;2023-06-05T12:34:49;20.50;99.90
27384;DHT22;14851;51.166;4.760;2023-06-05T12:40:21;20.50;99.90
27384;DHT22;14851;51.166;4.760;2023-06-05T12:42:47;20.60;99.90
27384;DHT22;14851;51.166;4.760;2023-06-05T12:45:14;20.70;99.90
27384;DHT22;14851;51.166;4.760;2023-06-05T12:47:41;20.70;99.90
27384;DHT22;14851;51.166;4.760;2023-06-05T12:50:08;20.70;99.90
27384;DHT22;14851;51.166;4.760;2023-06-05T12:52:41;20.80;99.90
27384;DHT22;14851;51.166;4.760;2023-06-05T12:55:09;20.80;99.90
27384;DHT22;14851;51.166;4.760;2023-06-05T12:57:38;20.80;99.90
27384;DHT22;14851;51.166;4.760;2023-06-05T13:00:05;20.90;99.90
27384;DHT22;14851;51.166;4.760;2023-06-05T13:02:47;20.90;99.90
27384;DHT22;14851;51.166;4.760;2023-06-05T13:05:14;20.90;99.90
27384;DHT22;14851;51.166;4.760;2023-06-05T13:07:40;21.00;99.90
27384;DHT22;14851;51.166;4.760;2023-06-05T13:10:07;21.00;99.90
27384;DHT22;14851;51.166;4.760;2023-06-05T13:12:34;21.10;99.90
27384;DHT22;14851;51.166;4.760;2023-06-05T13:15:00;21.10;99.90
27384;DHT22;14851;51.166;4.760;2023-06-05T13:17:28;21.20;99.90
27384;DHT22;14851;51.166;4.760;2023-06-05T13:19:59;21.30;99.90
27384;DHT22;14851;51.166;4.760;2023-06-05T13:22:25;21.30;99.90
27384;DHT22;14851;51.166;4.760;2023-06-05T13:24:54;21.40;99.90
27384;DHT22;14851;51.166;4.760;2023-06-05T13:27:20;21.50;98.70
27384;DHT22;14851;51.166;4.760;2023-06-05T13:29:46;21.60;98.90
27384;DHT22;14851;51.166;4.760;2023-06-05T13:32:12;21.60;99.20
27384;DHT22;14851;51.166;4.760;2023-06-05T13:34:38;21.60;99.90
27384;DHT22;14851;51.166;4.760;2023-06-05T13:37:04;21.70;99.90
27384;DHT22;14851;51.166;4.760;2023-06-05T13:39:30;21.70;99.90
27384;DHT22;14851;51.166;4.760;2023-06-05T13:41:58;21.80;99.90
27384;DHT22;14851;51.166;4.760;2023-06-05T13:44:24;21.90;99.90
27384;DHT22;14851;51.166;4.760;2023-06-05T13:46:52;21.90;99.90
27384;DHT22;14851;51.166;4.760;2023-06-05T13:49:18;21.90;99.40
27384;DHT22;14851;51.166;4.760;2023-06-05T13:51:43;21.90;99.20
27384;DHT22;14851;51.166;4.760;2023-06-05T13:54:09;21.90;98.60
27384;DHT22;14851;51.166;4.760;2023-06-05T13:56:37;22.00;98.60
27384;DHT22;14851;51.166;4.760;2023-06-05T13:59:03;22.10;99.00
27384;DHT22;14851;51.166;4.760;2023-06-05T14:01:29;22.10;99.00
27384;DHT22;14851;51.166;4.760;2023-06-05T14:03:55;22.30;98.20
27384;DHT22;14851;51.166;4.760;2023-06-05T14:06:23;22.30;98.70
27384;DHT22;14851;51.166;4.760;2023-06-05T14:08:53;22.40;98.10
27384;DHT22;14851;51.166;4.760;2023-06-05T14:11:21;22.50;97.70
27384;DHT22;14851;51.166;4.760;2023-06-05T14:13:47;22.50;98.10
27384;DHT22;14851;51.166;4.760;2023-06-05T14:16:13;22.60;98.10
27384;DHT22;14851;51.166;4.760;2023-06-05T14:18:39;22.60;97.40
27384;DHT22;14851;51.166;4.760;2023-06-05T14:21:05;22.60;97.20
27384;DHT22;14851;51.166;4.760;2023-06-05T14:23:31;22.70;97.40
27384;DHT22;14851;51.166;4.760;2023-06-05T14:25:57;22.80;97.10
27384;DHT22;14851;51.166;4.760;2023-06-05T14:28:23;22.80;97.50
27384;DHT22;14851;51.166;4.760;2023-06-05T14:30:49;23.00;96.70
27384;DHT22;14851;51.166;4.760;2023-06-05T14:33:15;23.00;96.70
27384;DHT22;14851;51.166;4.760;2023-06-05T14:35:45;22.90;96.20
27384;DHT22;14851;51.166;4.760;2023-06-05T14:38:14;23.00;96.70
27384;DHT22;14851;51.166;4.760;2023-06-05T14:40:43;23.10;97.10
27384;DHT22;14851;51.166;4.760;2023-06-05T14:43:11;23.10;97.00
27384;DHT22;14851;51.166;4.760;2023-06-05T14:45:37;23.30;97.10
27384;DHT22;14851;51.166;4.760;2023-06-05T14:48:03;23.30;97.10
27384;DHT22;14851;51.166;4.760;2023-06-05T14:50:35;23.40;97.00
27384;DHT22;14851;51.166;4.760;2023-06-05T14:53:00;23.50;96.80
27384;DHT22;14851;51.166;4.760;2023-06-05T14:55:26;23.60;96.30
27384;DHT22;14851;51.166;4.760;2023-06-05T14:57:52;23.70;94.70
27384;DHT22;14851;51.166;4.760;2023-06-05T15:00:18;23.90;93.70
27384;DHT22;14851;51.166;4.760;2023-06-05T15:02:44;24.00;93.30
27384;DHT22;14851;51.166;4.760;2023-06-05T15:05:10;24.10;94.10
27384;DHT22;14851;51.166;4.760;2023-06-05T15:07:40;24.20;93.70
27384;DHT22;14851;51.166;4.760;2023-06-05T15:10:09;24.30;93.90
27384;DHT22;14851;51.166;4.760;2023-06-05T15:12:38;24.30;93.00
27384;DHT22;14851;51.166;4.760;2023-06-05T15:15:07;24.40;92.10
27384;DHT22;14851;51.166;4.760;2023-06-05T15:17:36;24.50;92.20
27384;DHT22;14851;51.166;4.760;2023-06-05T15:20:04;24.40;92.30
27384;DHT22;14851;51.166;4.760;2023-06-05T15:22:32;24.50;91.90
27384;DHT22;14851;51.166;4.760;2023-06-05T15:24:58;24.50;91.50
27384;DHT22;14851;51.166;4.760;2023-06-05T15:27:24;24.40;91.80
27384;DHT22;14851;51.166;4.760;2023-06-05T15:29:49;24.40;92.50
27384;DHT22;14851;51.166;4.760;2023-06-05T15:32:15;24.40;91.80
27384;DHT22;14851;51.166;4.760;2023-06-05T15:34:41;24.40;92.40
27384;DHT22;14851;51.166;4.760;2023-06-05T15:37:09;24.40;92.40
27384;DHT22;14851;51.166;4.760;2023-06-05T15:39:36;24.40;92.40
27384;DHT22;14851;51.166;4.760;2023-06-05T15:42:02;24.30;93.20
27384;DHT22;14851;51.166;4.760;2023-06-05T15:44:28;24.30;94.00
27384;DHT22;14851;51.166;4.760;2023-06-05T15:46:54;24.20;94.00
27384;DHT22;14851;51.166;4.760;2023-06-05T15:49:19;24.20;94.10
27384;DHT22;14851;51.166;4.760;2023-06-05T15:51:45;24.10;94.80
27384;DHT22;14851;51.166;4.760;2023-06-05T15:54:13;24.10;95.40
27384;DHT22;14851;51.166;4.760;2023-06-05T15:56:40;24.10;95.60
27384;DHT22;14851;51.166;4.760;2023-06-05T15:59:05;24.00;96.10
27384;DHT22;14851;51.166;4.760;2023-06-05T16:01:31;24.00;96.50
27384;DHT22;14851;51.166;4.760;2023-06-05T16:03:59;23.90;96.70
27384;DHT22;14851;51.166;4.760;2023-06-05T16:06:25;23.90;97.00
27384;DHT22;14851;51.166;4.760;2023-06-05T16:08:51;23.80;97.50